sensor_id;sensor_type;location;lat;lon;timestamp;P1;durP1;ratioP1;P2;durP2;ratioP2
7045;SDS011;3564;53.326;10.356;2022-09-11T00:00:56;34.37;;;23.73;;
7045;SDS011;3564;53.326;10.356;2022-09-11T00:03:23;30.63;;;23.07;;
7045;SDS011;3564;53.326;10.356;2022-09-11T00:05:49;32.53;;;23.77;;
7045;SDS011;3564;53.326;10.356;2022-09-11T00:08:18;30.27;;;23.93;;
7045;SDS011;3564;53.326;10.356;2022-09-11T00:10:45;29.00;;;22.90;;
7045;SDS011;3564;53.326;10.356;2022-09-11T00:13:21;32.37;;;24.33;;
7045;SDS011;3564;53.326;10.356;2022-09-11T00:15:48;31.80;;;23.43;;
7045;SDS011;3564;53.326;10.356;2022-09-11T00:18:17;30.30;;;24.87;;
7045;SDS011;3564;53.326;10.356;2022-09-11T00:20:51;32.67;;;24.10;;
7045;SDS011;3564;53.326;10.356;2022-09-11T00:23:32;31.00;;;22.80;;
7045;SDS011;3564;53.326;10.356;2022-09-11T00:26:01;34.93;;;25.43;;
7045;SDS011;3564;53.326;10.356;2022-09-11T00:28:27;31.97;;;24.37;;
7045;SDS011;3564;53.326;10.356;2022-09-11T00:31:00;36.87;;;24.60;;
7045;SDS011;3564;53.326;10.356;2022-09-11T00:33:27;34.00;;;26.10;;
7045;SDS011;3564;53.326;10.356;2022-09-11T00:35:57;34.60;;;26.70;;
7045;SDS011;3564;53.326;10.356;2022-09-11T00:38:29;32.77;;;24.87;;
7045;SDS011;3564;53.326;10.356;2022-09-11T00:40:56;32.27;;;24.87;;
7045;SDS011;3564;53.326;10.356;2022-09-11T00:43:24;34.50;;;25.57;;
7045;SDS011;3564;53.326;10.356;2022-09-11T00:45:54;29.77;;;23.20;;
7045;SDS011;3564;53.326;10.356;2022-09-11T00:48:26;37.90;;;25.73;;
7045;SDS011;3564;53.326;10.356;2022-09-11T00:50:58;37.00;;;26.27;;
7045;SDS011;3564;53.326;10.356;2022-09-11T00:53:28;35.13;;;25.33;;
7045;SDS011;3564;53.326;10.356;2022-09-11T00:55:58;31.50;;;24.87;;
7045;SDS011;3564;53.326;10.356;2022-09-11T00:58:28;34.30;;;26.20;;
7045;SDS011;3564;53.326;10.356;2022-09-11T01:00:57;37.50;;;26.80;;
7045;SDS011;3564;53.326;10.356;2022-09-11T01:03:23;31.60;;;23.00;;
7045;SDS011;3564;53.326;10.356;2022-09-11T01:05:50;32.77;;;26.60;;
7045;SDS011;3564;53.326;10.356;2022-09-11T01:08:19;34.60;;;25.73;;
7045;SDS011;3564;53.326;10.356;2022-09-11T01:19:00;32.83;;;24.80;;
7045;SDS011;3564;53.326;10.356;2022-09-11T01:30:10;36.00;;;25.93;;
7045;SDS011;3564;53.326;10.356;2022-09-11T01:35:54;36.30;;;25.17;;
7045;SDS011;3564;53.326;10.356;2022-09-11T01:41:40;30.20;;;22.17;;
7045;SDS011;3564;53.326;10.356;2022-09-11T01:44:17;32.70;;;24.00;;
7045;SDS011;3564;53.326;10.356;2022-09-11T01:46:47;32.97;;;25.17;;
7045;SDS011;3564;53.326;10.356;2022-09-11T01:51:48;36.30;;;24.60;;
7045;SDS011;3564;53.326;10.356;2022-09-11T01:54:20;33.87;;;24.80;;
7045;SDS011;3564;53.326;10.356;2022-09-11T01:56:53;33.80;;;24.23;;
7045;SDS011;3564;53.326;10.356;2022-09-11T01:59:30;33.87;;;24.47;;
7045;SDS011;3564;53.326;10.356;2022-09-11T02:02:09;31.83;;;23.13;;
7045;SDS011;3564;53.326;10.356;2022-09-11T02:04:45;33.90;;;24.60;;
7045;SDS011;3564;53.326;10.356;2022-09-11T02:07:21;34.07;;;24.87;;
7045;SDS011;3564;53.326;10.356;2022-09-11T02:09:53;33.10;;;24.23;;
7045;SDS011;3564;53.326;10.356;2022-09-11T02:12:23;32.20;;;23.23;;
7045;SDS011;3564;53.326;10.356;2022-09-11T02:14:57;33.47;;;24.80;;
7045;SDS011;3564;53.326;10.356;2022-09-11T02:17:31;30.10;;;22.20;;
7045;SDS011;3564;53.326;10.356;2022-09-11T02:20:20;26.43;;;20.50;;
7045;SDS011;3564;53.326;10.356;2022-09-11T02:22:46;27.97;;;22.60;;
7045;SDS011;3564;53.326;10.356;2022-09-11T02:25:14;25.80;;;21.87;;
7045;SDS011;3564;53.326;10.356;2022-09-11T02:27:40;27.00;;;22.37;;
7045;SDS011;3564;53.326;10.356;2022-09-11T02:30:06;28.60;;;22.20;;
7045;SDS011;3564;53.326;10.356;2022-09-11T02:32:34;30.00;;;22.13;;
7045;SDS011;3564;53.326;10.356;2022-09-11T02:35:01;29.97;;;22.27;;
7045;SDS011;3564;53.326;10.356;2022-09-11T02:37:39;33.17;;;22.57;;
7045;SDS011;3564;53.326;10.356;2022-09-11T02:40:23;25.87;;;20.43;;
7045;SDS011;3564;53.326;10.356;2022-09-11T02:46:21;30.53;;;21.97;;
7045;SDS011;3564;53.326;10.356;2022-09-11T02:52:01;29.47;;;21.60;;
7045;SDS011;3564;53.326;10.356;2022-09-11T02:54:55;28.53;;;21.03;;
7045;SDS011;3564;53.326;10.356;2022-09-11T02:57:37;29.77;;;21.13;;
7045;SDS011;3564;53.326;10.356;2022-09-11T03:00:09;28.70;;;22.50;;
7045;SDS011;3564;53.326;10.356;2022-09-11T03:02:38;23.77;;;19.50;;
7045;SDS011;3564;53.326;10.356;2022-09-11T03:05:05;29.17;;;20.77;;
7045;SDS011;3564;53.326;10.356;2022-09-11T03:07:32;26.77;;;20.27;;
7045;SDS011;3564;53.326;10.356;2022-09-11T03:09:58;31.47;;;21.87;;
7045;SDS011;3564;53.326;10.356;2022-09-11T03:12:23;28.43;;;20.47;;
7045;SDS011;3564;53.326;10.356;2022-09-11T03:14:50;29.87;;;21.43;;
7045;SDS011;3564;53.326;10.356;2022-09-11T03:17:16;28.63;;;21.23;;
7045;SDS011;3564;53.326;10.356;2022-09-11T03:19:41;31.10;;;22.30;;
7045;SDS011;3564;53.326;10.356;2022-09-11T03:22:07;28.93;;;21.90;;
7045;SDS011;3564;53.326;10.356;2022-09-11T03:24:32;28.67;;;22.23;;
7045;SDS011;3564;53.326;10.356;2022-09-11T03:26:58;33.57;;;22.70;;
7045;SDS011;3564;53.326;10.356;2022-09-11T03:29:23;35.07;;;24.27;;
7045;SDS011;3564;53.326;10.356;2022-09-11T03:31:49;34.10;;;24.03;;
7045;SDS011;3564;53.326;10.356;2022-09-11T03:34:15;34.10;;;24.50;;
7045;SDS011;3564;53.326;10.356;2022-09-11T03:36:42;34.23;;;24.40;;
7045;SDS011;3564;53.326;10.356;2022-09-11T03:39:08;36.20;;;24.93;;
7045;SDS011;3564;53.326;10.356;2022-09-11T03:41:33;35.83;;;24.70;;
7045;SDS011;3564;53.326;10.356;2022-09-11T03:43:59;34.10;;;23.97;;
7045;SDS011;3564;53.326;10.356;2022-09-11T03:46:24;36.43;;;24.40;;
7045;SDS011;3564;53.326;10.356;2022-09-11T03:48:51;34.77;;;24.07;;
7045;SDS011;3564;53.326;10.356;2022-09-11T03:51:17;39.57;;;23.90;;
7045;SDS011;3564;53.326;10.356;2022-09-11T03:53:43;34.77;;;23.40;;
7045;SDS011;3564;53.326;10.356;2022-09-11T03:56:09;35.30;;;22.50;;
7045;SDS011;3564;53.326;10.356;2022-09-11T03:58:35;42.13;;;24.70;;
7045;SDS011;3564;53.326;10.356;2022-09-11T04:01:06;35.47;;;23.93;;
7045;SDS011;3564;53.326;10.356;2022-09-11T04:03:33;32.67;;;21.80;;
7045;SDS011;3564;53.326;10.356;2022-09-11T04:06:00;39.70;;;24.43;;
7045;SDS011;3564;53.326;10.356;2022-09-11T04:08:26;36.87;;;24.33;;
7045;SDS011;3564;53.326;10.356;2022-09-11T04:10:57;33.03;;;23.80;;
7045;SDS011;3564;53.326;10.356;2022-09-11T04:13:28;37.03;;;23.63;;
7045;SDS011;3564;53.326;10.356;2022-09-11T04:16:04;36.83;;;23.33;;
7045;SDS011;3564;53.326;10.356;2022-09-11T04:18:36;37.87;;;23.37;;
7045;SDS011;3564;53.326;10.356;2022-09-11T04:21:03;38.77;;;23.73;;
7045;SDS011;3564;53.326;10.356;2022-09-11T04:23:30;41.10;;;23.53;;
7045;SDS011;3564;53.326;10.356;2022-09-11T04:25:56;37.17;;;23.00;;
7045;SDS011;3564;53.326;10.356;2022-09-11T04:28:22;36.23;;;23.63;;
7045;SDS011;3564;53.326;10.356;2022-09-11T04:30:47;32.03;;;20.97;;
7045;SDS011;3564;53.326;10.356;2022-09-11T04:33:13;36.73;;;23.17;;
7045;SDS011;3564;53.326;10.356;2022-09-11T04:35:39;35.50;;;22.47;;
7045;SDS011;3564;53.326;10.356;2022-09-11T04:38:05;36.40;;;22.97;;
7045;SDS011;3564;53.326;10.356;2022-09-11T04:40:32;36.47;;;21.87;;
7045;SDS011;3564;53.326;10.356;2022-09-11T04:42:58;36.23;;;22.57;;
7045;SDS011;3564;53.326;10.356;2022-09-11T04:45:26;34.03;;;21.13;;
7045;SDS011;3564;53.326;10.356;2022-09-11T04:47:52;35.73;;;21.17;;
7045;SDS011;3564;53.326;10.356;2022-09-11T04:50:18;35.00;;;21.73;;
7045;SDS011;3564;53.326;10.356;2022-09-11T04:52:44;36.57;;;21.53;;
7045;SDS011;3564;53.326;10.356;2022-09-11T04:55:09;30.50;;;19.77;;
7045;SDS011;3564;53.326;10.356;2022-09-11T04:57:35;34.47;;;21.60;;
7045;SDS011;3564;53.326;10.356;2022-09-11T05:00:02;31.73;;;19.40;;
7045;SDS011;3564;53.326;10.356;2022-09-11T05:02:29;34.40;;;21.30;;
7045;SDS011;3564;53.326;10.356;2022-09-11T05:04:54;35.80;;;20.77;;
7045;SDS011;3564;53.326;10.356;2022-09-11T05:07:20;36.60;;;22.07;;
7045;SDS011;3564;53.326;10.356;2022-09-11T05:09:45;39.67;;;20.70;;
7045;SDS011;3564;53.326;10.356;2022-09-11T05:12:11;35.70;;;20.47;;
7045;SDS011;3564;53.326;10.356;2022-09-11T05:14:37;30.67;;;19.67;;
7045;SDS011;3564;53.326;10.356;2022-09-11T05:17:03;30.97;;;18.93;;
7045;SDS011;3564;53.326;10.356;2022-09-11T05:19:29;34.60;;;19.77;;
7045;SDS011;3564;53.326;10.356;2022-09-11T05:21:54;31.43;;;18.80;;
7045;SDS011;3564;53.326;10.356;2022-09-11T05:24:20;34.17;;;18.83;;
7045;SDS011;3564;53.326;10.356;2022-09-11T05:26:45;30.80;;;18.57;;
7045;SDS011;3564;53.326;10.356;2022-09-11T05:29:12;33.43;;;19.40;;
7045;SDS011;3564;53.326;10.356;2022-09-11T05:31:39;32.20;;;19.07;;
7045;SDS011;3564;53.326;10.356;2022-09-11T05:34:05;34.77;;;19.43;;
7045;SDS011;3564;53.326;10.356;2022-09-11T05:36:31;31.63;;;18.07;;
7045;SDS011;3564;53.326;10.356;2022-09-11T05:38:59;32.53;;;18.10;;
7045;SDS011;3564;53.326;10.356;2022-09-11T05:41:25;32.70;;;18.53;;
7045;SDS011;3564;53.326;10.356;2022-09-11T05:43:52;34.00;;;18.63;;
7045;SDS011;3564;53.326;10.356;2022-09-11T05:46:20;29.73;;;17.70;;
7045;SDS011;3564;53.326;10.356;2022-09-11T05:48:45;29.67;;;17.90;;
7045;SDS011;3564;53.326;10.356;2022-09-11T05:51:16;30.73;;;17.57;;
7045;SDS011;3564;53.326;10.356;2022-09-11T05:53:44;27.67;;;16.87;;
7045;SDS011;3564;53.326;10.356;2022-09-11T05:56:13;27.83;;;16.60;;
7045;SDS011;3564;53.326;10.356;2022-09-11T05:58:41;26.37;;;16.57;;
7045;SDS011;3564;53.326;10.356;2022-09-11T06:01:14;26.27;;;15.97;;
7045;SDS011;3564;53.326;10.356;2022-09-11T06:03:42;28.97;;;17.60;;
7045;SDS011;3564;53.326;10.356;2022-09-11T06:06:09;29.20;;;17.50;;
7045;SDS011;3564;53.326;10.356;2022-09-11T06:08:36;29.00;;;16.80;;
7045;SDS011;3564;53.326;10.356;2022-09-11T06:11:06;28.00;;;17.10;;
7045;SDS011;3564;53.326;10.356;2022-09-11T06:13:33;28.67;;;16.90;;
7045;SDS011;3564;53.326;10.356;2022-09-11T06:16:00;26.37;;;15.10;;
7045;SDS011;3564;53.326;10.356;2022-09-11T06:18:28;30.93;;;17.33;;
7045;SDS011;3564;53.326;10.356;2022-09-11T06:21:00;24.30;;;14.50;;
7045;SDS011;3564;53.326;10.356;2022-09-11T06:23:27;23.53;;;15.07;;
7045;SDS011;3564;53.326;10.356;2022-09-11T06:25:53;25.70;;;14.30;;
7045;SDS011;3564;53.326;10.356;2022-09-11T06:28:28;26.63;;;15.27;;
7045;SDS011;3564;53.326;10.356;2022-09-11T06:30:53;24.13;;;15.00;;
7045;SDS011;3564;53.326;10.356;2022-09-11T06:33:19;22.93;;;13.60;;
7045;SDS011;3564;53.326;10.356;2022-09-11T06:35:55;22.13;;;13.23;;
7045;SDS011;3564;53.326;10.356;2022-09-11T06:38:25;21.23;;;13.30;;
7045;SDS011;3564;53.326;10.356;2022-09-11T06:40:52;19.57;;;11.57;;
7045;SDS011;3564;53.326;10.356;2022-09-11T06:43:18;20.63;;;12.73;;
7045;SDS011;3564;53.326;10.356;2022-09-11T06:45:44;19.77;;;12.10;;
7045;SDS011;3564;53.326;10.356;2022-09-11T06:48:12;20.90;;;12.87;;
7045;SDS011;3564;53.326;10.356;2022-09-11T06:50:41;22.23;;;13.30;;
7045;SDS011;3564;53.326;10.356;2022-09-11T06:53:08;21.73;;;13.50;;
7045;SDS011;3564;53.326;10.356;2022-09-11T06:55:34;21.10;;;13.13;;
7045;SDS011;3564;53.326;10.356;2022-09-11T06:58:02;20.33;;;12.53;;
7045;SDS011;3564;53.326;10.356;2022-09-11T07:00:27;19.00;;;12.10;;
7045;SDS011;3564;53.326;10.356;2022-09-11T07:02:53;19.17;;;11.37;;
7045;SDS011;3564;53.326;10.356;2022-09-11T07:05:19;21.07;;;11.63;;
7045;SDS011;3564;53.326;10.356;2022-09-11T07:07:50;18.97;;;10.93;;
7045;SDS011;3564;53.326;10.356;2022-09-11T07:10:17;17.40;;;11.10;;
7045;SDS011;3564;53.326;10.356;2022-09-11T07:12:43;18.27;;;11.50;;
7045;SDS011;3564;53.326;10.356;2022-09-11T07:15:08;18.70;;;11.73;;
7045;SDS011;3564;53.326;10.356;2022-09-11T07:17:35;14.90;;;9.93;;
7045;SDS011;3564;53.326;10.356;2022-09-11T07:20:02;14.33;;;9.77;;
7045;SDS011;3564;53.326;10.356;2022-09-11T07:22:29;14.67;;;10.03;;
7045;SDS011;3564;53.326;10.356;2022-09-11T07:24:55;17.70;;;10.80;;
7045;SDS011;3564;53.326;10.356;2022-09-11T07:27:21;15.97;;;9.70;;
7045;SDS011;3564;53.326;10.356;2022-09-11T07:29:47;15.00;;;10.10;;
7045;SDS011;3564;53.326;10.356;2022-09-11T07:32:13;14.63;;;9.93;;
7045;SDS011;3564;53.326;10.356;2022-09-11T07:34:44;14.00;;;9.83;;
7045;SDS011;3564;53.326;10.356;2022-09-11T07:37:11;15.00;;;9.70;;
7045;SDS011;3564;53.326;10.356;2022-09-11T07:39:37;14.17;;;9.07;;
7045;SDS011;3564;53.326;10.356;2022-09-11T07:42:05;16.33;;;8.67;;
7045;SDS011;3564;53.326;10.356;2022-09-11T07:44:33;13.87;;;8.87;;
7045;SDS011;3564;53.326;10.356;2022-09-11T07:47:00;10.47;;;8.53;;
7045;SDS011;3564;53.326;10.356;2022-09-11T07:49:26;13.90;;;9.30;;
7045;SDS011;3564;53.326;10.356;2022-09-11T07:51:52;13.03;;;8.77;;
7045;SDS011;3564;53.326;10.356;2022-09-11T07:54:18;12.03;;;8.53;;
7045;SDS011;3564;53.326;10.356;2022-09-11T07:56:44;12.33;;;8.17;;
7045;SDS011;3564;53.326;10.356;2022-09-11T07:59:10;14.03;;;9.07;;
7045;SDS011;3564;53.326;10.356;2022-09-11T08:01:35;14.30;;;9.53;;
7045;SDS011;3564;53.326;10.356;2022-09-11T08:04:02;12.47;;;9.23;;
7045;SDS011;3564;53.326;10.356;2022-09-11T08:06:34;11.03;;;8.20;;
7045;SDS011;3564;53.326;10.356;2022-09-11T08:09:02;10.03;;;8.17;;
7045;SDS011;3564;53.326;10.356;2022-09-11T08:11:30;11.07;;;8.57;;
7045;SDS011;3564;53.326;10.356;2022-09-11T08:13:59;10.87;;;8.43;;
7045;SDS011;3564;53.326;10.356;2022-09-11T08:16:25;10.63;;;8.47;;
7045;SDS011;3564;53.326;10.356;2022-09-11T08:18:51;11.40;;;9.03;;
7045;SDS011;3564;53.326;10.356;2022-09-11T08:21:18;10.43;;;8.43;;
7045;SDS011;3564;53.326;10.356;2022-09-11T08:23:44;10.00;;;8.33;;
7045;SDS011;3564;53.326;10.356;2022-09-11T08:26:11;11.43;;;8.83;;
7045;SDS011;3564;53.326;10.356;2022-09-11T08:28:39;8.37;;;7.40;;
7045;SDS011;3564;53.326;10.356;2022-09-11T08:31:09;11.27;;;8.67;;
7045;SDS011;3564;53.326;10.356;2022-09-11T08:33:36;12.37;;;8.00;;
7045;SDS011;3564;53.326;10.356;2022-09-11T08:36:06;9.60;;;8.00;;
7045;SDS011;3564;53.326;10.356;2022-09-11T08:38:34;10.07;;;7.97;;
7045;SDS011;3564;53.326;10.356;2022-09-11T08:41:08;11.07;;;8.93;;
7045;SDS011;3564;53.326;10.356;2022-09-11T08:43:47;10.60;;;8.47;;
7045;SDS011;3564;53.326;10.356;2022-09-11T08:46:17;11.47;;;8.90;;
7045;SDS011;3564;53.326;10.356;2022-09-11T08:51:41;12.90;;;9.17;;
7045;SDS011;3564;53.326;10.356;2022-09-11T08:54:11;12.93;;;9.27;;
7045;SDS011;3564;53.326;10.356;2022-09-11T08:56:57;11.33;;;8.53;;
7045;SDS011;3564;53.326;10.356;2022-09-11T09:02:46;11.33;;;9.73;;
7045;SDS011;3564;53.326;10.356;2022-09-11T09:10:52;9.77;;;8.33;;
7045;SDS011;3564;53.326;10.356;2022-09-11T09:18:55;10.87;;;8.63;;
7045;SDS011;3564;53.326;10.356;2022-09-11T09:22:01;10.27;;;8.33;;
7045;SDS011;3564;53.326;10.356;2022-09-11T09:24:41;9.40;;;8.07;;
7045;SDS011;3564;53.326;10.356;2022-09-11T09:27:20;8.43;;;7.60;;
7045;SDS011;3564;53.326;10.356;2022-09-11T09:29:53;9.50;;;8.10;;
7045;SDS011;3564;53.326;10.356;2022-09-11T09:32:27;8.17;;;7.37;;
7045;SDS011;3564;53.326;10.356;2022-09-11T09:34:59;9.43;;;7.73;;
7045;SDS011;3564;53.326;10.356;2022-09-11T09:37:28;9.13;;;7.57;;
7045;SDS011;3564;53.326;10.356;2022-09-11T09:39:54;9.57;;;7.63;;
7045;SDS011;3564;53.326;10.356;2022-09-11T09:45:32;7.83;;;7.07;;
7045;SDS011;3564;53.326;10.356;2022-09-11T09:48:09;7.87;;;7.10;;
7045;SDS011;3564;53.326;10.356;2022-09-11T09:50:39;7.60;;;6.13;;
7045;SDS011;3564;53.326;10.356;2022-09-11T09:56:11;4.87;;;4.20;;
7045;SDS011;3564;53.326;10.356;2022-09-11T09:58:41;5.20;;;4.03;;
7045;SDS011;3564;53.326;10.356;2022-09-11T10:06:40;5.20;;;4.70;;
7045;SDS011;3564;53.326;10.356;2022-09-11T10:09:20;3.73;;;3.43;;
7045;SDS011;3564;53.326;10.356;2022-09-11T10:12:20;3.90;;;3.50;;
7045;SDS011;3564;53.326;10.356;2022-09-11T10:14:52;4.47;;;3.67;;
7045;SDS011;3564;53.326;10.356;2022-09-11T10:17:29;4.07;;;2.97;;
7045;SDS011;3564;53.326;10.356;2022-09-11T10:23:20;4.00;;;3.00;;
7045;SDS011;3564;53.326;10.356;2022-09-11T10:25:48;3.60;;;2.67;;
7045;SDS011;3564;53.326;10.356;2022-09-11T10:28:14;3.97;;;3.47;;
7045;SDS011;3564;53.326;10.356;2022-09-11T10:31:01;4.67;;;3.13;;
7045;SDS011;3564;53.326;10.356;2022-09-11T10:33:29;3.40;;;3.10;;
7045;SDS011;3564;53.326;10.356;2022-09-11T10:36:01;3.73;;;2.70;;
7045;SDS011;3564;53.326;10.356;2022-09-11T10:38:51;3.73;;;3.43;;
7045;SDS011;3564;53.326;10.356;2022-09-11T10:41:24;3.10;;;2.80;;
7045;SDS011;3564;53.326;10.356;2022-09-11T10:44:12;3.67;;;3.30;;
7045;SDS011;3564;53.326;10.356;2022-09-11T10:46:42;4.07;;;2.93;;
7045;SDS011;3564;53.326;10.356;2022-09-11T10:49:19;3.87;;;3.17;;
7045;SDS011;3564;53.326;10.356;2022-09-11T10:57:43;3.30;;;2.70;;
7045;SDS011;3564;53.326;10.356;2022-09-11T11:00:15;2.77;;;2.50;;
7045;SDS011;3564;53.326;10.356;2022-09-11T11:02:43;3.07;;;2.77;;
7045;SDS011;3564;53.326;10.356;2022-09-11T11:05:17;3.00;;;2.70;;
7045;SDS011;3564;53.326;10.356;2022-09-11T11:16:45;3.33;;;2.93;;
7045;SDS011;3564;53.326;10.356;2022-09-11T11:38:39;1.93;;;1.83;;
7045;SDS011;3564;53.326;10.356;2022-09-11T11:41:10;2.10;;;1.90;;
7045;SDS011;3564;53.326;10.356;2022-09-11T11:43:41;2.67;;;1.80;;
7045;SDS011;3564;53.326;10.356;2022-09-11T11:51:16;1.80;;;1.70;;
7045;SDS011;3564;53.326;10.356;2022-09-11T11:53:53;1.70;;;1.60;;
7045;SDS011;3564;53.326;10.356;2022-09-11T11:59:35;1.83;;;1.60;;
7045;SDS011;3564;53.326;10.356;2022-09-11T12:04:51;1.87;;;1.77;;
7045;SDS011;3564;53.326;10.356;2022-09-11T12:07:37;2.60;;;1.50;;
7045;SDS011;3564;53.326;10.356;2022-09-11T12:10:06;3.53;;;1.80;;
7045;SDS011;3564;53.326;10.356;2022-09-11T12:12:52;2.43;;;1.87;;
7045;SDS011;3564;53.326;10.356;2022-09-11T12:15:23;3.20;;;2.07;;
7045;SDS011;3564;53.326;10.356;2022-09-11T12:18:20;2.70;;;2.00;;
7045;SDS011;3564;53.326;10.356;2022-09-11T12:20:48;2.20;;;2.00;;
7045;SDS011;3564;53.326;10.356;2022-09-11T12:34:16;2.17;;;2.07;;
7045;SDS011;3564;53.326;10.356;2022-09-11T12:37:02;1.97;;;1.80;;
7045;SDS011;3564;53.326;10.356;2022-09-11T12:39:33;2.27;;;2.17;;
7045;SDS011;3564;53.326;10.356;2022-09-11T12:47:22;2.43;;;1.70;;
7045;SDS011;3564;53.326;10.356;2022-09-11T12:52:39;2.20;;;1.67;;
7045;SDS011;3564;53.326;10.356;2022-09-11T12:55:28;1.73;;;1.47;;
7045;SDS011;3564;53.326;10.356;2022-09-11T12:58:04;1.20;;;1.10;;
7045;SDS011;3564;53.326;10.356;2022-09-11T13:00:46;1.30;;;1.20;;
7045;SDS011;3564;53.326;10.356;2022-09-11T13:03:21;3.27;;;1.33;;
7045;SDS011;3564;53.326;10.356;2022-09-11T13:05:57;1.83;;;1.40;;
7045;SDS011;3564;53.326;10.356;2022-09-11T13:08:37;1.43;;;1.33;;
7045;SDS011;3564;53.326;10.356;2022-09-11T13:14:04;1.63;;;1.53;;
7045;SDS011;3564;53.326;10.356;2022-09-11T13:16:50;1.30;;;1.20;;
7045;SDS011;3564;53.326;10.356;2022-09-11T13:19:16;1.60;;;1.50;;
7045;SDS011;3564;53.326;10.356;2022-09-11T13:21:44;1.50;;;1.40;;
7045;SDS011;3564;53.326;10.356;2022-09-11T13:24:29;1.40;;;1.30;;
7045;SDS011;3564;53.326;10.356;2022-09-11T13:29:40;1.40;;;1.30;;
7045;SDS011;3564;53.326;10.356;2022-09-11T13:32:08;1.50;;;1.40;;
7045;SDS011;3564;53.326;10.356;2022-09-11T13:34:37;3.30;;;1.50;;
7045;SDS011;3564;53.326;10.356;2022-09-11T13:37:09;2.80;;;1.30;;
7045;SDS011;3564;53.326;10.356;2022-09-11T13:39:51;1.60;;;1.50;;
7045;SDS011;3564;53.326;10.356;2022-09-11T13:42:17;1.80;;;1.70;;
7045;SDS011;3564;53.326;10.356;2022-09-11T13:44:54;1.63;;;1.53;;
7045;SDS011;3564;53.326;10.356;2022-09-11T13:47:22;3.33;;;1.40;;
7045;SDS011;3564;53.326;10.356;2022-09-11T13:49:55;2.03;;;1.83;;
7045;SDS011;3564;53.326;10.356;2022-09-11T13:52:27;1.80;;;1.67;;
7045;SDS011;3564;53.326;10.356;2022-09-11T13:54:55;2.07;;;1.40;;
7045;SDS011;3564;53.326;10.356;2022-09-11T13:57:24;1.60;;;1.50;;
7045;SDS011;3564;53.326;10.356;2022-09-11T13:59:52;3.13;;;1.50;;
7045;SDS011;3564;53.326;10.356;2022-09-11T14:05:11;2.00;;;1.50;;
7045;SDS011;3564;53.326;10.356;2022-09-11T14:07:44;1.63;;;1.53;;
7045;SDS011;3564;53.326;10.356;2022-09-11T14:10:20;1.60;;;1.50;;
7045;SDS011;3564;53.326;10.356;2022-09-11T14:12:55;1.50;;;1.40;;
7045;SDS011;3564;53.326;10.356;2022-09-11T14:15:28;1.50;;;1.40;;
7045;SDS011;3564;53.326;10.356;2022-09-11T14:17:59;2.17;;;1.30;;
7045;SDS011;3564;53.326;10.356;2022-09-11T14:20:26;1.40;;;1.30;;
7045;SDS011;3564;53.326;10.356;2022-09-11T14:22:54;2.53;;;1.37;;
7045;SDS011;3564;53.326;10.356;2022-09-11T14:25:22;1.13;;;1.10;;
7045;SDS011;3564;53.326;10.356;2022-09-11T14:27:48;1.57;;;1.37;;
7045;SDS011;3564;53.326;10.356;2022-09-11T14:33:32;1.50;;;1.40;;
7045;SDS011;3564;53.326;10.356;2022-09-11T14:35:51;1.80;;;1.43;;
7045;SDS011;3564;53.326;10.356;2022-09-11T14:38:24;1.40;;;1.30;;
7045;SDS011;3564;53.326;10.356;2022-09-11T14:40:54;1.40;;;1.30;;
7045;SDS011;3564;53.326;10.356;2022-09-11T14:43:38;1.10;;;1.10;;
7045;SDS011;3564;53.326;10.356;2022-09-11T14:46:04;1.30;;;1.20;;
7045;SDS011;3564;53.326;10.356;2022-09-11T14:48:30;2.03;;;1.40;;
7045;SDS011;3564;53.326;10.356;2022-09-11T14:50:58;1.43;;;1.33;;
7045;SDS011;3564;53.326;10.356;2022-09-11T14:53:27;1.77;;;1.60;;
7045;SDS011;3564;53.326;10.356;2022-09-11T14:55:55;1.80;;;1.70;;
7045;SDS011;3564;53.326;10.356;2022-09-11T14:58:23;1.53;;;1.43;;
7045;SDS011;3564;53.326;10.356;2022-09-11T15:00:50;1.87;;;1.47;;
7045;SDS011;3564;53.326;10.356;2022-09-11T15:03:15;1.40;;;1.30;;
7045;SDS011;3564;53.326;10.356;2022-09-11T15:05:42;1.43;;;1.30;;
7045;SDS011;3564;53.326;10.356;2022-09-11T15:08:09;1.40;;;1.30;;
7045;SDS011;3564;53.326;10.356;2022-09-11T15:10:35;1.70;;;1.50;;
7045;SDS011;3564;53.326;10.356;2022-09-11T15:13:00;1.60;;;1.50;;
7045;SDS011;3564;53.326;10.356;2022-09-11T15:15:27;2.90;;;1.60;;
7045;SDS011;3564;53.326;10.356;2022-09-11T15:17:53;1.50;;;1.40;;
7045;SDS011;3564;53.326;10.356;2022-09-11T15:20:19;1.40;;;1.30;;
7045;SDS011;3564;53.326;10.356;2022-09-11T15:22:48;1.57;;;1.47;;
7045;SDS011;3564;53.326;10.356;2022-09-11T15:25:13;1.90;;;1.50;;
7045;SDS011;3564;53.326;10.356;2022-09-11T15:27:39;1.77;;;1.60;;
7045;SDS011;3564;53.326;10.356;2022-09-11T15:30:05;1.30;;;1.20;;
7045;SDS011;3564;53.326;10.356;2022-09-11T15:32:30;1.53;;;1.40;;
7045;SDS011;3564;53.326;10.356;2022-09-11T15:34:56;1.53;;;1.43;;
7045;SDS011;3564;53.326;10.356;2022-09-11T15:37:22;1.40;;;1.30;;
7045;SDS011;3564;53.326;10.356;2022-09-11T15:39:48;1.63;;;1.40;;
7045;SDS011;3564;53.326;10.356;2022-09-11T15:42:15;1.90;;;1.40;;
7045;SDS011;3564;53.326;10.356;2022-09-11T15:44:41;2.10;;;1.40;;
7045;SDS011;3564;53.326;10.356;2022-09-11T15:47:06;1.30;;;1.20;;
7045;SDS011;3564;53.326;10.356;2022-09-11T15:49:33;2.03;;;1.20;;
7045;SDS011;3564;53.326;10.356;2022-09-11T15:52:04;1.67;;;1.30;;
7045;SDS011;3564;53.326;10.356;2022-09-11T15:54:30;1.60;;;1.50;;
7045;SDS011;3564;53.326;10.356;2022-09-11T15:56:55;1.80;;;1.30;;
7045;SDS011;3564;53.326;10.356;2022-09-11T15:59:21;1.60;;;1.33;;
7045;SDS011;3564;53.326;10.356;2022-09-11T16:01:47;2.13;;;1.50;;
7045;SDS011;3564;53.326;10.356;2022-09-11T16:04:14;1.50;;;1.40;;
7045;SDS011;3564;53.326;10.356;2022-09-11T16:06:43;1.47;;;1.37;;
7045;SDS011;3564;53.326;10.356;2022-09-11T16:09:14;1.50;;;1.40;;
7045;SDS011;3564;53.326;10.356;2022-09-11T16:11:42;3.03;;;1.43;;
7045;SDS011;3564;53.326;10.356;2022-09-11T16:14:16;1.50;;;1.40;;
7045;SDS011;3564;53.326;10.356;2022-09-11T16:16:43;1.90;;;1.37;;
7045;SDS011;3564;53.326;10.356;2022-09-11T16:19:13;1.60;;;1.50;;
7045;SDS011;3564;53.326;10.356;2022-09-11T16:21:40;1.50;;;1.40;;
7045;SDS011;3564;53.326;10.356;2022-09-11T16:24:05;1.47;;;1.33;;
7045;SDS011;3564;53.326;10.356;2022-09-11T16:26:31;1.47;;;1.37;;
7045;SDS011;3564;53.326;10.356;2022-09-11T16:28:57;1.47;;;1.33;;
7045;SDS011;3564;53.326;10.356;2022-09-11T16:31:23;1.40;;;1.30;;
7045;SDS011;3564;53.326;10.356;2022-09-11T16:33:48;1.60;;;1.50;;
7045;SDS011;3564;53.326;10.356;2022-09-11T16:36:15;1.57;;;1.47;;
7045;SDS011;3564;53.326;10.356;2022-09-11T16:38:42;1.33;;;1.23;;
7045;SDS011;3564;53.326;10.356;2022-09-11T16:41:17;1.60;;;1.50;;
7045;SDS011;3564;53.326;10.356;2022-09-11T16:43:45;1.63;;;1.53;;
7045;SDS011;3564;53.326;10.356;2022-09-11T16:46:17;1.70;;;1.60;;
7045;SDS011;3564;53.326;10.356;2022-09-11T16:48:47;1.53;;;1.30;;
7045;SDS011;3564;53.326;10.356;2022-09-11T16:51:13;1.77;;;1.67;;
7045;SDS011;3564;53.326;10.356;2022-09-11T16:53:41;1.40;;;1.30;;
7045;SDS011;3564;53.326;10.356;2022-09-11T16:56:08;1.60;;;1.50;;
7045;SDS011;3564;53.326;10.356;2022-09-11T16:58:35;1.77;;;1.67;;
7045;SDS011;3564;53.326;10.356;2022-09-11T17:01:14;1.80;;;1.70;;
7045;SDS011;3564;53.326;10.356;2022-09-11T17:03:43;1.97;;;1.67;;
7045;SDS011;3564;53.326;10.356;2022-09-11T17:06:10;1.60;;;1.50;;
7045;SDS011;3564;53.326;10.356;2022-09-11T17:08:38;2.40;;;1.63;;
7045;SDS011;3564;53.326;10.356;2022-09-11T17:11:05;2.73;;;1.43;;
7045;SDS011;3564;53.326;10.356;2022-09-11T17:13:35;1.60;;;1.50;;
7045;SDS011;3564;53.326;10.356;2022-09-11T17:16:12;1.77;;;1.60;;
7045;SDS011;3564;53.326;10.356;2022-09-11T17:18:39;2.63;;;1.50;;
7045;SDS011;3564;53.326;10.356;2022-09-11T17:21:06;1.93;;;1.70;;
7045;SDS011;3564;53.326;10.356;2022-09-11T17:23:34;1.60;;;1.50;;